Time;durP1;ratioP1;P1;durP2;ratioP2;P2;SDS_P1;SDS_P2;PMS_P1;PMS_P2;Temp;Humidity;BMP_temperature;BMP_pressure;BME280_temperature;BME280_humidity;BME280_pressure;Samples;Min_cycle;Max_cycle;Signal;HPM_P1;HPM_P2
2023/02/15 00:01:12;;;;;;;97.93;29.52;;;;;;;;;;5096991;28;20194;-68
2023/02/15 00:03:39;;;;;;;90.63;27.30;;;;;;;;;;5092703;28;20456;-68
2023/02/15 00:06:05;;;;;;;102.07;30.77;;;;;;;;;;5098697;28;20039;-68
2023/02/15 00:08:31;;;;;;;108.82;30.10;;;;;;;;;;5099197;28;20042;-68
2023/02/15 00:11:11;;;;;;;143.55;30.50;;;;;;;;;;5092838;28;20173;-68
2023/02/15 00:13:40;;;;;;;207.95;32.78;;;;;;;;;;5100647;28;20108;-68
2023/02/15 00:16:07;;;;;;;253.57;34.53;;;;;;;;;;5099122;28;20437;-68
2023/02/15 00:18:34;;;;;;;248.95;35.28;;;;;;;;;;5097805;28;20422;-68
2023/02/15 00:21:03;;;;;;;263.73;34.45;;;;;;;;;;5097035;28;20047;-67
2023/02/15 00:23:29;;;;;;;167.23;32.70;;;;;;;;;;5096799;28;20035;-67
2023/02/15 00:26:07;;;;;;;207.00;33.33;;;;;;;;;;5098583;28;20100;-67
2023/02/15 00:28:33;;;;;;;174.25;32.53;;;;;;;;;;5062396;28;20043;-67
2023/02/15 00:31:07;;;;;;;170.43;32.63;;;;;;;;;;5093887;28;20089;-67
2023/02/15 00:33:34;;;;;;;188.60;35.47;;;;;;;;;;5101494;28;20036;-67
2023/02/15 00:36:00;;;;;;;387.17;42.90;;;;;;;;;;5101201;28;20047;-68
2023/02/15 00:38:27;;;;;;;490.05;48.53;;;;;;;;;;5095764;28;20082;-68
2023/02/15 00:40:54;;;;;;;409.70;45.10;;;;;;;;;;5098327;28;20055;-68
2023/02/15 00:43:20;;;;;;;374.30;41.80;;;;;;;;;;5100076;28;20036;-68
2023/02/15 00:45:47;;;;;;;377.75;42.92;;;;;;;;;;5099295;28;20040;-68
2023/02/15 00:48:13;;;;;;;231.02;38.72;;;;;;;;;;5101631;28;20040;-68
2023/02/15 00:50:39;;;;;;;214.00;35.22;;;;;;;;;;5091436;28;20557;-68
2023/02/15 00:53:05;;;;;;;186.65;34.20;;;;;;;;;;5097118;28;20039;-68
2023/02/15 00:55:31;;;;;;;207.35;31.50;;;;;;;;;;5078294;28;20039;-68
2023/02/15 00:57:57;;;;;;;159.98;30.83;;;;;;;;;;5099019;28;20040;-68
2023/02/15 01:00:24;;;;;;;174.13;32.13;;;;;;;;;;5096499;28;20044;-68
2023/02/15 01:02:50;;;;;;;184.48;31.73;;;;;;;;;;5074330;28;20055;-68
2023/02/15 01:05:16;;;;;;;147.88;30.98;;;;;;;;;;5076459;28;20048;-68
2023/02/15 01:07:42;;;;;;;153.15;29.67;;;;;;;;;;5094717;28;20376;-68
2023/02/15 01:10:09;;;;;;;170.65;30.73;;;;;;;;;;5099136;28;20503;-68
2023/02/15 01:12:35;;;;;;;243.63;33.25;;;;;;;;;;5095471;28;20108;-68
2023/02/15 01:15:01;;;;;;;211.43;33.00;;;;;;;;;;5095500;28;20070;-69
2023/02/15 01:17:27;;;;;;;257.95;32.67;;;;;;;;;;5098858;28;20160;-68
2023/02/15 01:19:53;;;;;;;172.57;27.90;;;;;;;;;;5100220;28;20143;-68
2023/02/15 01:22:19;;;;;;;199.63;29.45;;;;;;;;;;5098388;28;20044;-68
2023/02/15 01:24:46;;;;;;;139.40;26.98;;;;;;;;;;5093683;28;20481;-68
2023/02/15 01:27:12;;;;;;;146.80;26.00;;;;;;;;;;5099397;28;20046;-68
2023/02/15 01:29:38;;;;;;;84.07;24.73;;;;;;;;;;5102158;28;20051;-68
2023/02/15 01:32:04;;;;;;;74.63;23.88;;;;;;;;;;5099930;28;20039;-68
2023/02/15 01:34:30;;;;;;;97.68;24.85;;;;;;;;;;5100298;28;20035;-68
2023/02/15 01:36:56;;;;;;;130.55;25.70;;;;;;;;;;5098427;28;20493;-68
2023/02/15 01:39:23;;;;;;;100.18;24.48;;;;;;;;;;5098169;28;20035;-68
2023/02/15 01:41:50;;;;;;;146.80;29.05;;;;;;;;;;5080356;28;20059;-68
2023/02/15 01:44:35;;;;;;;73.95;23.42;;;;;;;;;;5101336;28;20117;-68
2023/02/15 01:47:02;;;;;;;73.63;23.27;;;;;;;;;;5102442;28;20107;-68
2023/02/15 01:49:29;;;;;;;103.68;23.10;;;;;;;;;;5100735;28;20515;-68
2023/02/15 01:51:55;;;;;;;118.55;25.23;;;;;;;;;;5087569;28;20036;-68
2023/02/15 01:54:24;;;;;;;169.60;27.55;;;;;;;;;;5101212;28;20459;-68
2023/02/15 01:56:51;;;;;;;160.50;27.10;;;;;;;;;;5084299;28;20061;-68
2023/02/15 01:59:19;;;;;;;157.75;26.90;;;;;;;;;;5098808;28;20108;-68
2023/02/15 02:01:46;;;;;;;143.88;25.25;;;;;;;;;;5103080;28;20040;-68
2023/02/15 02:04:16;;;;;;;119.28;24.58;;;;;;;;;;5101787;28;20086;-68
2023/02/15 02:06:44;;;;;;;126.10;24.48;;;;;;;;;;5081445;28;20059;-68
2023/02/15 02:09:11;;;;;;;129.50;22.98;;;;;;;;;;5083939;28;20043;-68
2023/02/15 02:11:39;;;;;;;107.97;22.35;;;;;;;;;;5080858;28;20078;-68
2023/02/15 02:14:05;;;;;;;144.73;24.10;;;;;;;;;;5102019;28;20086;-68
2023/02/15 02:16:31;;;;;;;137.70;23.45;;;;;;;;;;5098305;28;20062;-68
2023/02/15 02:19:05;;;;;;;139.40;26.30;;;;;;;;;;5100333;28;20040;-68
2023/02/15 02:21:48;;;;;;;140.10;25.45;;;;;;;;;;5080858;28;20178;-68
2023/02/15 02:24:33;;;;;;;187.60;28.15;;;;;;;;;;5078442;28;20480;-68
2023/02/15 02:27:06;;;;;;;141.02;26.75;;;;;;;;;;5101331;28;20116;-68
2023/02/15 02:29:36;;;;;;;164.83;28.30;;;;;;;;;;5083058;28;20180;-68
2023/02/15 02:32:18;;;;;;;139.63;26.63;;;;;;;;;;5098099;28;20289;-68
2023/02/15 02:34:51;;;;;;;84.93;25.08;;;;;;;;;;5098681;28;20119;-66
2023/02/15 02:37:23;;;;;;;111.95;27.70;;;;;;;;;;5097537;28;20035;-68
2023/02/15 02:39:59;;;;;;;84.20;27.23;;;;;;;;;;5098643;28;20051;-68
2023/02/15 02:42:30;;;;;;;137.98;28.55;;;;;;;;;;5099183;28;20150;-68
2023/02/15 02:45:10;;;;;;;135.13;31.40;;;;;;;;;;5099066;28;20040;-68
2023/02/15 02:47:40;;;;;;;141.10;32.20;;;;;;;;;;5098201;28;20047;-68
2023/02/15 02:50:08;;;;;;;134.88;33.40;;;;;;;;;;5083411;28;20380;-68
2023/02/15 02:52:42;;;;;;;78.68;30.63;;;;;;;;;;5098953;28;20039;-68
2023/02/15 02:55:27;;;;;;;52.10;26.88;;;;;;;;;;5099374;28;20522;-68
2023/02/15 02:57:57;;;;;;;48.08;27.45;;;;;;;;;;5102998;28;20263;-68
2023/02/15 03:00:25;;;;;;;41.17;24.75;;;;;;;;;;5094338;28;20543;-68
2023/02/15 03:02:55;;;;;;;41.38;26.58;;;;;;;;;;5095964;28;20055;-68
2023/02/15 03:05:23;;;;;;;40.25;25.98;;;;;;;;;;5101088;28;20093;-67
2023/02/15 03:07:50;;;;;;;50.30;26.55;;;;;;;;;;5100738;28;20096;-67
2023/02/15 03:10:18;;;;;;;46.85;28.50;;;;;;;;;;5099085;28;20040;-67
2023/02/15 03:12:44;;;;;;;45.70;26.38;;;;;;;;;;5093745;28;20039;-67
2023/02/15 03:15:13;;;;;;;68.95;27.15;;;;;;;;;;5085739;28;20048;-68
2023/02/15 03:17:42;;;;;;;55.30;26.55;;;;;;;;;;5098788;28;20126;-68
2023/02/15 03:20:11;;;;;;;41.03;27.48;;;;;;;;;;5095710;28;20117;-68
2023/02/15 03:22:41;;;;;;;35.10;24.35;;;;;;;;;;5078444;28;20104;-67
2023/02/15 03:25:13;;;;;;;36.53;24.50;;;;;;;;;;5099655;28;20077;-68
2023/02/15 03:27:43;;;;;;;37.67;24.35;;;;;;;;;;5098773;28;20043;-68
2023/02/15 03:30:10;;;;;;;45.83;23.67;;;;;;;;;;5098924;28;20043;-68
2023/02/15 03:32:38;;;;;;;140.52;30.10;;;;;;;;;;5101264;28;20115;-68
2023/02/15 03:35:04;;;;;;;205.05;31.98;;;;;;;;;;5104437;28;20036;-69
2023/02/15 03:37:34;;;;;;;262.35;34.17;;;;;;;;;;5078829;28;20093;-68
2023/02/15 03:41:09;;;;;;;263.00;34.25;;;;;;;;;;5079031;28;20052;-67
2023/02/15 03:42:52;;;;;;;278.73;33.63;;;;;;;;;;5101763;28;20367;-68
2023/02/15 03:45:21;;;;;;;240.70;32.30;;;;;;;;;;5077766;28;20429;-68
2023/02/15 03:47:48;;;;;;;248.65;32.90;;;;;;;;;;5098391;28;20082;-68
2023/02/15 03:53:03;;;;;;;228.77;32.17;;;;;;;;;;5102478;28;20039;-68
2023/02/15 03:55:29;;;;;;;183.88;30.10;;;;;;;;;;5096386;28;20399;-68
2023/02/15 04:03:40;;;;;;;224.48;29.35;;;;;;;;;;5097869;28;20040;-68
2023/02/15 04:06:06;;;;;;;226.82;27.50;;;;;;;;;;5095783;28;20063;-68
2023/02/15 04:11:17;;;;;;;150.48;26.20;;;;;;;;;;5094102;28;20135;-68
2023/02/15 04:13:43;;;;;;;129.57;26.17;;;;;;;;;;5096289;28;20324;-68
2023/02/15 04:16:09;;;;;;;125.78;25.38;;;;;;;;;;5083582;28;20056;-68
2023/02/15 04:26:53;;;;;;;135.60;25.50;;;;;;;;;;5093092;28;20044;-68
2023/02/15 04:29:20;;;;;;;147.05;27.40;;;;;;;;;;5095922;28;20107;-67
2023/02/15 04:31:46;;;;;;;114.65;28.48;;;;;;;;;;5094765;28;20043;-68
2023/02/15 04:34:12;;;;;;;216.57;33.13;;;;;;;;;;5092675;28;20353;-67
2023/02/15 04:36:39;;;;;;;277.52;35.83;;;;;;;;;;5097625;28;20079;-68
2023/02/15 04:39:05;;;;;;;290.05;37.83;;;;;;;;;;5093690;28;20056;-68
2023/02/15 04:41:32;;;;;;;134.10;31.98;;;;;;;;;;5093959;28;20135;-68
2023/02/15 04:43:59;;;;;;;113.38;30.67;;;;;;;;;;5098275;28;20112;-68
2023/02/15 04:46:25;;;;;;;108.15;30.08;;;;;;;;;;5093034;28;20467;-68
2023/02/15 04:48:51;;;;;;;125.93;29.60;;;;;;;;;;5095201;28;20036;-68
2023/02/15 04:51:17;;;;;;;219.18;31.42;;;;;;;;;;5095318;28;20040;-68
2023/02/15 04:53:43;;;;;;;146.55;28.23;;;;;;;;;;5095517;28;20044;-68
2023/02/15 04:56:10;;;;;;;115.85;27.63;;;;;;;;;;5078040;28;20054;-68
2023/02/15 04:58:36;;;;;;;45.10;25.10;;;;;;;;;;5096975;28;20039;-68
2023/02/15 05:01:03;;;;;;;42.08;24.17;;;;;;;;;;5097158;28;20082;-68
2023/02/15 05:03:29;;;;;;;80.90;27.05;;;;;;;;;;5098078;28;20433;-68
2023/02/15 05:05:55;;;;;;;61.05;26.45;;;;;;;;;;5081577;28;20044;-68
2023/02/15 05:08:21;;;;;;;82.72;27.10;;;;;;;;;;5104048;28;20070;-68
2023/02/15 05:10:49;;;;;;;120.65;29.08;;;;;;;;;;5104175;28;20047;-68
2023/02/15 05:13:15;;;;;;;166.68;30.17;;;;;;;;;;5093439;28;20097;-68
2023/02/15 05:15:41;;;;;;;200.38;31.83;;;;;;;;;;5102132;28;20063;-68
2023/02/15 05:18:08;;;;;;;223.88;34.30;;;;;;;;;;5099584;28;20092;-68
2023/02/15 05:20:34;;;;;;;243.82;33.75;;;;;;;;;;5103141;28;20139;-68
2023/02/15 05:23:00;;;;;;;237.15;37.13;;;;;;;;;;5098206;28;20032;-68
2023/02/15 05:28:22;;;;;;;85.25;30.52;;;;;;;;;;5096237;28;20131;-68
2023/02/15 05:30:50;;;;;;;46.70;29.58;;;;;;;;;;5099596;28;20048;-68
2023/02/15 05:33:16;;;;;;;51.30;29.10;;;;;;;;;;5101598;28;20035;-68
2023/02/15 05:35:42;;;;;;;164.32;36.80;;;;;;;;;;5085340;28;20043;-68
2023/02/15 05:38:08;;;;;;;160.63;34.00;;;;;;;;;;5100863;28;20241;-68
2023/02/15 05:40:34;;;;;;;282.70;38.78;;;;;;;;;;5095047;28;20052;-67
2023/02/15 05:43:01;;;;;;;156.82;32.63;;;;;;;;;;5095855;28;20120;-68
2023/02/15 05:45:27;;;;;;;247.90;35.40;;;;;;;;;;5083285;28;20047;-68
2023/02/15 05:47:53;;;;;;;222.52;36.25;;;;;;;;;;5095802;28;20196;-68
2023/02/15 05:50:19;;;;;;;211.13;36.30;;;;;;;;;;5079183;28;20052;-68
2023/02/15 05:52:46;;;;;;;172.18;37.17;;;;;;;;;;5076223;28;20040;-68
2023/02/15 05:55:12;;;;;;;285.83;43.60;;;;;;;;;;5101179;28;20043;-67
2023/02/15 05:57:38;;;;;;;311.85;41.50;;;;;;;;;;5101144;28;20035;-68
2023/02/15 06:00:05;;;;;;;281.48;41.53;;;;;;;;;;5097127;28;20441;-68
2023/02/15 06:02:36;;;;;;;336.92;41.90;;;;;;;;;;5103806;28;20375;-68
2023/02/15 06:05:03;;;;;;;430.17;44.72;;;;;;;;;;5095965;28;20039;-68
2023/02/15 06:07:29;;;;;;;311.02;45.13;;;;;;;;;;5098333;28;20510;-67
2023/02/15 06:09:56;;;;;;;286.63;43.83;;;;;;;;;;5094528;28;20495;-68
2023/02/15 06:12:22;;;;;;;397.58;45.90;;;;;;;;;;5098385;28;20055;-68
2023/02/15 06:14:48;;;;;;;355.30;47.17;;;;;;;;;;5091040;28;20062;-67
2023/02/15 06:17:14;;;;;;;310.33;41.38;;;;;;;;;;5081085;28;20126;-67
2023/02/15 06:19:40;;;;;;;406.15;49.35;;;;;;;;;;5094963;28;20036;-68
2023/02/15 06:22:06;;;;;;;433.73;48.75;;;;;;;;;;5077469;28;20173;-67
2023/02/15 06:24:33;;;;;;;432.10;53.75;;;;;;;;;;5100171;28;20099;-68
2023/02/15 06:26:59;;;;;;;377.80;52.75;;;;;;;;;;5099766;28;21609;-68
2023/02/15 06:29:25;;;;;;;339.30;49.03;;;;;;;;;;5094888;28;20379;-69
2023/02/15 06:31:51;;;;;;;207.13;48.83;;;;;;;;;;5076375;28;20352;-68
2023/02/15 06:34:17;;;;;;;122.13;50.03;;;;;;;;;;5082856;28;20202;-68
2023/02/15 06:36:43;;;;;;;134.50;51.10;;;;;;;;;;5098927;28;20046;-68
2023/02/15 06:39:10;;;;;;;137.18;58.28;;;;;;;;;;5080100;28;20035;-69
2023/02/15 06:41:36;;;;;;;140.90;58.67;;;;;;;;;;5096803;28;21404;-68
2023/02/15 06:44:02;;;;;;;145.75;60.22;;;;;;;;;;5081667;28;20581;-69
2023/02/15 06:46:28;;;;;;;145.07;60.00;;;;;;;;;;5093275;28;20458;-67
2023/02/15 06:48:55;;;;;;;143.80;61.10;;;;;;;;;;5096391;28;20491;-68
2023/02/15 06:51:21;;;;;;;138.70;60.15;;;;;;;;;;5099305;28;20099;-68
2023/02/15 06:53:47;;;;;;;141.43;60.20;;;;;;;;;;5079383;28;20059;-68
2023/02/15 06:56:13;;;;;;;127.70;58.65;;;;;;;;;;5075116;28;20083;-69
2023/02/15 06:58:40;;;;;;;144.88;62.00;;;;;;;;;;5098187;28;20069;-69
2023/02/15 07:01:06;;;;;;;149.52;59.05;;;;;;;;;;5095753;28;20050;-69
2023/02/15 07:03:33;;;;;;;156.43;62.88;;;;;;;;;;5099977;28;20122;-69
2023/02/15 07:06:01;;;;;;;163.60;63.00;;;;;;;;;;5093875;28;20040;-69
2023/02/15 07:08:27;;;;;;;141.48;60.03;;;;;;;;;;5098450;28;20441;-69
2023/02/15 07:10:54;;;;;;;133.48;58.90;;;;;;;;;;5100434;28;20031;-68
2023/02/15 07:13:21;;;;;;;151.50;59.13;;;;;;;;;;5098379;28;20067;-69
2023/02/15 07:15:48;;;;;;;131.50;60.47;;;;;;;;;;5096711;28;20043;-70
2023/02/15 07:18:14;;;;;;;147.98;59.80;;;;;;;;;;5080407;28;20253;-69
2023/02/15 07:20:41;;;;;;;172.00;59.75;;;;;;;;;;5095005;28;20043;-69
2023/02/15 07:23:08;;;;;;;250.30;59.13;;;;;;;;;;5078059;28;20028;-69
2023/02/15 07:25:34;;;;;;;183.45;59.47;;;;;;;;;;5093319;28;20044;-69
2023/02/15 07:28:01;;;;;;;185.48;57.58;;;;;;;;;;5095771;28;20036;-69
2023/02/15 07:30:28;;;;;;;148.50;60.00;;;;;;;;;;5092320;28;20501;-69
2023/02/15 07:33:27;;;;;;;153.18;62.50;;;;;;;;;;5093615;28;20127;-69
2023/02/15 07:35:54;;;;;;;156.80;63.20;;;;;;;;;;5094566;28;20062;-69
2023/02/15 07:38:21;;;;;;;165.50;63.28;;;;;;;;;;5096770;28;20031;-68
2023/02/15 07:40:47;;;;;;;171.73;68.05;;;;;;;;;;5073854;28;20052;-68
2023/02/15 07:43:14;;;;;;;158.80;64.85;;;;;;;;;;5074937;28;20046;-69
2023/02/15 07:45:40;;;;;;;164.23;65.65;;;;;;;;;;5092129;28;20048;-69
2023/02/15 07:48:07;;;;;;;150.23;61.55;;;;;;;;;;5099365;28;20036;-68
2023/02/15 07:50:33;;;;;;;144.82;57.67;;;;;;;;;;5095952;28;20055;-69
2023/02/15 07:53:02;;;;;;;156.77;62.45;;;;;;;;;;5079445;28;20036;-69
2023/02/15 07:55:28;;;;;;;153.18;61.63;;;;;;;;;;5082568;28;20420;-68
2023/02/15 07:57:54;;;;;;;142.25;61.22;;;;;;;;;;5078783;28;20066;-69
2023/02/15 08:00:24;;;;;;;151.98;62.80;;;;;;;;;;5098006;28;20775;-70
2023/02/15 08:03:12;;;;;;;148.95;63.47;;;;;;;;;;5093628;28;20072;-77
2023/02/15 08:05:38;;;;;;;162.15;64.80;;;;;;;;;;5077541;28;20054;-71
2023/02/15 08:08:05;;;;;;;140.00;61.67;;;;;;;;;;5094344;28;21395;-71
2023/02/15 08:13:16;;;;;;;138.45;62.17;;;;;;;;;;5099249;28;20096;-76
2023/02/15 08:15:49;;;;;;;133.93;57.08;;;;;;;;;;5075825;28;20443;-71
2023/02/15 08:18:15;;;;;;;147.23;63.63;;;;;;;;;;5088380;28;20063;-71
2023/02/15 08:20:42;;;;;;;142.45;61.72;;;;;;;;;;5096237;28;20040;-71
2023/02/15 08:23:08;;;;;;;139.13;61.95;;;;;;;;;;5071355;28;20039;-71
2023/02/15 08:25:34;;;;;;;145.20;61.63;;;;;;;;;;5101541;28;20040;-71
2023/02/15 08:28:00;;;;;;;145.38;62.25;;;;;;;;;;5102173;28;20055;-71
2023/02/15 08:30:26;;;;;;;147.77;62.95;;;;;;;;;;5090432;28;20097;-71
2023/02/15 08:32:53;;;;;;;148.57;64.75;;;;;;;;;;5100170;28;20075;-71
2023/02/15 08:35:19;;;;;;;137.07;63.10;;;;;;;;;;5099726;28;20039;-71
2023/02/15 08:37:45;;;;;;;136.25;60.60;;;;;;;;;;5081806;28;20043;-72
2023/02/15 08:40:13;;;;;;;151.60;64.57;;;;;;;;;;5096813;28;20399;-71
2023/02/15 08:42:39;;;;;;;154.30;67.55;;;;;;;;;;5078955;28;20055;-72
2023/02/15 08:45:05;;;;;;;155.60;69.32;;;;;;;;;;5099887;28;20082;-72
2023/02/15 08:47:32;;;;;;;157.82;66.38;;;;;;;;;;5080014;28;20044;-72
2023/02/15 08:49:58;;;;;;;147.15;65.82;;;;;;;;;;5098850;28;20039;-72
2023/02/15 08:52:24;;;;;;;155.63;68.45;;;;;;;;;;5078684;28;20093;-72
2023/02/15 08:54:50;;;;;;;155.88;66.15;;;;;;;;;;5093374;28;20047;-72
2023/02/15 08:57:16;;;;;;;155.02;67.40;;;;;;;;;;5080788;28;20155;-71
2023/02/15 08:59:42;;;;;;;150.40;67.15;;;;;;;;;;5078434;28;20476;-71
2023/02/15 09:02:11;;;;;;;155.93;69.07;;;;;;;;;;5102535;28;20393;-71
2023/02/15 09:04:37;;;;;;;146.10;67.10;;;;;;;;;;5099917;28;20075;-71
2023/02/15 09:07:04;;;;;;;131.18;64.45;;;;;;;;;;5097842;28;20050;-71
2023/02/15 09:09:31;;;;;;;133.20;66.30;;;;;;;;;;5098486;28;20040;-71
2023/02/15 09:11:57;;;;;;;139.88;64.43;;;;;;;;;;5091967;28;20044;-68
2023/02/15 09:14:25;;;;;;;142.80;65.85;;;;;;;;;;5101947;28;20036;-69
2023/02/15 09:16:52;;;;;;;136.52;64.25;;;;;;;;;;5080292;28;20174;-68
2023/02/15 09:19:19;;;;;;;128.02;61.53;;;;;;;;;;5071507;28;20539;-69
2023/02/15 09:21:45;;;;;;;120.55;60.88;;;;;;;;;;5082155;28;20139;-83
2023/02/15 09:24:13;;;;;;;123.38;61.15;;;;;;;;;;5082322;28;20039;-68
2023/02/15 09:26:40;;;;;;;120.03;61.28;;;;;;;;;;5099624;28;20483;-68
2023/02/15 09:29:07;;;;;;;115.53;60.78;;;;;;;;;;5085633;28;20043;-68
2023/02/15 09:31:34;;;;;;;108.82;56.40;;;;;;;;;;5103760;28;20050;-68
2023/02/15 09:34:01;;;;;;;107.78;57.95;;;;;;;;;;5100024;28;20059;-79
2023/02/15 09:36:29;;;;;;;106.30;55.50;;;;;;;;;;5076153;28;20066;-69
2023/02/15 09:38:58;;;;;;;110.70;55.35;;;;;;;;;;5075931;28;20502;-70
2023/02/15 09:41:35;;;;;;;103.03;53.08;;;;;;;;;;5093330;28;21361;-71
2023/02/15 09:44:04;;;;;;;100.50;52.53;;;;;;;;;;5080813;28;20147;-71
2023/02/15 09:46:40;;;;;;;92.22;51.70;;;;;;;;;;5076465;28;20080;-71
2023/02/15 09:49:11;;;;;;;92.10;50.90;;;;;;;;;;5097271;28;20045;-71
2023/02/15 09:51:43;;;;;;;89.40;47.78;;;;;;;;;;5098756;28;20155;-71
2023/02/15 09:54:22;;;;;;;86.93;47.10;;;;;;;;;;5074636;28;20036;-71
2023/02/15 09:56:52;;;;;;;90.10;47.30;;;;;;;;;;5096064;28;20065;-71
2023/02/15 09:59:24;;;;;;;83.97;46.30;;;;;;;;;;5078391;28;20394;-70
2023/02/15 10:01:56;;;;;;;76.45;44.85;;;;;;;;;;5097736;28;20147;-71
2023/02/15 10:04:30;;;;;;;85.65;44.80;;;;;;;;;;5100036;28;20050;-71
2023/02/15 10:07:09;;;;;;;77.68;41.58;;;;;;;;;;5097522;28;20048;-71
2023/02/15 10:09:35;;;;;;;76.18;43.72;;;;;;;;;;5095175;28;20119;-71
2023/02/15 10:12:10;;;;;;;79.13;41.55;;;;;;;;;;5096984;28;20051;-71
2023/02/15 10:14:53;;;;;;;80.60;41.22;;;;;;;;;;5081906;28;20043;-71
2023/02/15 10:17:38;;;;;;;71.15;40.45;;;;;;;;;;5099071;28;20100;-71
2023/02/15 10:20:24;;;;;;;77.43;43.85;;;;;;;;;;5096877;28;20077;-71
2023/02/15 10:23:05;;;;;;;72.63;41.70;;;;;;;;;;5097456;28;20113;-71
2023/02/15 10:25:40;;;;;;;79.38;42.08;;;;;;;;;;5099716;28;20131;-71
2023/02/15 10:28:09;;;;;;;70.65;40.50;;;;;;;;;;5098683;28;20050;-71
2023/02/15 10:30:45;;;;;;;78.53;41.70;;;;;;;;;;5099748;28;20043;-68
2023/02/15 10:33:17;;;;;;;70.75;41.72;;;;;;;;;;5098546;28;20088;-68
2023/02/15 10:36:01;;;;;;;67.22;40.92;;;;;;;;;;5095491;28;20335;-69
2023/02/15 10:38:33;;;;;;;68.50;38.72;;;;;;;;;;5104185;28;20043;-68
2023/02/15 10:41:21;;;;;;;68.30;40.65;;;;;;;;;;5104398;28;20123;-69
2023/02/15 10:44:11;;;;;;;68.85;39.90;;;;;;;;;;5104527;28;20517;-69
2023/02/15 10:46:37;;;;;;;70.30;40.65;;;;;;;;;;5102361;28;20042;-69
2023/02/15 10:49:20;;;;;;;67.03;38.80;;;;;;;;;;5084504;28;20043;-69
2023/02/15 10:51:46;;;;;;;67.18;39.88;;;;;;;;;;5098283;28;20402;-69
2023/02/15 10:54:12;;;;;;;74.53;42.50;;;;;;;;;;5083947;28;20108;-69
2023/02/15 10:57:03;;;;;;;76.00;42.30;;;;;;;;;;5082282;28;20536;-68
2023/02/15 10:59:43;;;;;;;65.00;38.75;;;;;;;;;;5079848;28;20489;-69
2023/02/15 11:02:24;;;;;;;64.82;38.28;;;;;;;;;;5098445;28;20108;-68
2023/02/15 11:05:01;;;;;;;69.22;38.95;;;;;;;;;;5100079;28;20044;-68
2023/02/15 11:07:32;;;;;;;64.25;38.13;;;;;;;;;;5096222;28;20039;-68
2023/02/15 11:10:06;;;;;;;65.35;38.22;;;;;;;;;;5096127;28;20036;-69
2023/02/15 11:12:33;;;;;;;62.35;38.10;;;;;;;;;;5081976;28;20036;-68
2023/02/15 11:15:03;;;;;;;66.30;38.20;;;;;;;;;;5093271;28;20686;-68
2023/02/15 11:17:37;;;;;;;66.10;37.10;;;;;;;;;;5098515;28;20047;-68
2023/02/15 11:20:16;;;;;;;72.43;40.03;;;;;;;;;;5079734;28;20426;-68
2023/02/15 11:22:42;;;;;;;64.63;38.95;;;;;;;;;;5075756;28;20207;-68
2023/02/15 11:25:17;;;;;;;72.38;40.90;;;;;;;;;;5099789;28;20454;-68
2023/02/15 11:27:45;;;;;;;65.68;37.45;;;;;;;;;;5097416;28;20058;-68
2023/02/15 11:30:13;;;;;;;62.72;37.85;;;;;;;;;;5075017;28;20405;-68
2023/02/15 11:32:40;;;;;;;70.20;37.42;;;;;;;;;;5099228;28;20055;-68
2023/02/15 11:35:07;;;;;;;66.50;39.05;;;;;;;;;;5098155;28;20399;-68
2023/02/15 11:37:36;;;;;;;65.78;38.03;;;;;;;;;;5077609;28;20051;-68
2023/02/15 11:40:04;;;;;;;63.58;36.25;;;;;;;;;;5096703;28;20491;-68
2023/02/15 11:42:32;;;;;;;57.25;37.15;;;;;;;;;;5096013;28;20043;-68
2023/02/15 11:44:58;;;;;;;57.38;35.33;;;;;;;;;;5094658;28;20388;-68
2023/02/15 11:47:24;;;;;;;56.05;35.35;;;;;;;;;;5091734;28;20390;-68
2023/02/15 11:49:51;;;;;;;55.30;35.13;;;;;;;;;;5075885;28;20062;-68
2023/02/15 11:52:18;;;;;;;56.97;35.05;;;;;;;;;;5074288;28;20040;-68
2023/02/15 11:54:47;;;;;;;55.42;33.05;;;;;;;;;;5072987;28;20446;-68
2023/02/15 11:57:13;;;;;;;56.20;34.38;;;;;;;;;;5077293;28;20059;-68
2023/02/15 11:59:42;;;;;;;50.75;32.42;;;;;;;;;;5094256;28;20058;-68
2023/02/15 12:02:19;;;;;;;53.88;34.72;;;;;;;;;;5096132;28;20118;-68
2023/02/15 12:04:55;;;;;;;52.33;33.67;;;;;;;;;;5092523;28;20044;-68
2023/02/15 12:07:25;;;;;;;56.78;36.00;;;;;;;;;;5093649;28;20410;-68
2023/02/15 12:09:55;;;;;;;54.05;32.90;;;;;;;;;;5089222;28;20159;-68
2023/02/15 12:12:22;;;;;;;52.70;34.58;;;;;;;;;;5094193;28;20047;-68
2023/02/15 12:14:50;;;;;;;59.38;36.17;;;;;;;;;;5094575;28;20076;-68
2023/02/15 12:17:16;;;;;;;53.53;34.72;;;;;;;;;;5087370;28;20048;-69
2023/02/15 12:19:45;;;;;;;60.22;37.05;;;;;;;;;;5094956;28;20036;-68
2023/02/15 12:22:21;;;;;;;61.50;39.00;;;;;;;;;;5093154;28;20400;-68
2023/02/15 12:24:48;;;;;;;59.97;36.60;;;;;;;;;;5094842;28;20491;-68
2023/02/15 12:27:16;;;;;;;65.63;37.60;;;;;;;;;;5091904;28;20383;-68
2023/02/15 12:29:43;;;;;;;63.30;36.97;;;;;;;;;;5094604;28;20048;-68
2023/02/15 12:32:12;;;;;;;62.65;39.47;;;;;;;;;;5090682;28;20165;-68
2023/02/15 12:34:41;;;;;;;62.20;38.33;;;;;;;;;;5076851;28;20048;-68
2023/02/15 12:37:16;;;;;;;60.20;37.30;;;;;;;;;;5090332;28;20070;-68
2023/02/15 12:39:51;;;;;;;60.72;37.20;;;;;;;;;;5074157;28;20040;-68
2023/02/15 12:42:19;;;;;;;57.47;36.33;;;;;;;;;;5090627;28;20498;-68
2023/02/15 12:45:00;;;;;;;65.47;38.75;;;;;;;;;;5095962;28;20050;-68
2023/02/15 12:47:27;;;;;;;60.15;36.65;;;;;;;;;;5093255;28;20154;-68
2023/02/15 12:50:08;;;;;;;58.83;35.55;;;;;;;;;;5094067;28;20036;-68
2023/02/15 12:52:34;;;;;;;64.22;36.60;;;;;;;;;;5096867;28;20145;-68
2023/02/15 12:55:11;;;;;;;52.58;33.58;;;;;;;;;;5096175;28;20093;-68
2023/02/15 12:57:38;;;;;;;58.83;34.78;;;;;;;;;;5080338;28;20112;-68
2023/02/15 13:00:20;;;;;;;58.00;34.97;;;;;;;;;;5077842;28;20048;-68
2023/02/15 13:02:50;;;;;;;62.70;34.70;;;;;;;;;;5092387;28;20051;-68
2023/02/15 13:05:20;;;;;;;57.70;34.75;;;;;;;;;;5094662;28;20075;-68
2023/02/15 13:07:49;;;;;;;61.08;34.08;;;;;;;;;;5092866;28;20388;-68
2023/02/15 13:10:36;;;;;;;54.67;33.40;;;;;;;;;;5096943;28;20087;-68
2023/02/15 13:13:02;;;;;;;57.70;34.10;;;;;;;;;;5094977;28;20546;-68
2023/02/15 13:15:34;;;;;;;53.30;31.70;;;;;;;;;;5097436;28;20088;-68
2023/02/15 13:18:01;;;;;;;51.70;30.27;;;;;;;;;;5097917;28;20048;-68
2023/02/15 13:20:28;;;;;;;57.28;32.88;;;;;;;;;;5078700;28;20036;-68
2023/02/15 13:23:00;;;;;;;49.92;30.52;;;;;;;;;;5091934;28;20040;-68
2023/02/15 13:25:28;;;;;;;51.13;31.38;;;;;;;;;;5095729;28;20039;-68
2023/02/15 13:27:57;;;;;;;55.30;30.95;;;;;;;;;;5104309;28;20491;-68
2023/02/15 13:30:25;;;;;;;53.85;31.58;;;;;;;;;;5098977;28;20044;-68
2023/02/15 13:32:55;;;;;;;51.20;29.67;;;;;;;;;;5093969;28;20074;-68
2023/02/15 13:35:21;;;;;;;56.85;30.98;;;;;;;;;;5094872;28;20109;-68
2023/02/15 13:37:51;;;;;;;52.50;32.28;;;;;;;;;;5103901;28;20036;-68
2023/02/15 13:40:23;;;;;;;53.30;31.30;;;;;;;;;;5078574;28;20552;-68
2023/02/15 13:42:54;;;;;;;53.10;32.38;;;;;;;;;;5083841;28;20051;-68
2023/02/15 13:45:23;;;;;;;49.22;30.38;;;;;;;;;;5095334;28;20043;-68
2023/02/15 13:47:58;;;;;;;45.25;27.58;;;;;;;;;;5093348;28;20116;-68
2023/02/15 13:50:39;;;;;;;50.13;30.15;;;;;;;;;;5074792;28;20075;-68
2023/02/15 13:53:08;;;;;;;46.65;28.40;;;;;;;;;;5102614;28;20115;-67
2023/02/15 13:55:39;;;;;;;49.22;28.85;;;;;;;;;;5081391;28;20361;-67
2023/02/15 13:58:14;;;;;;;52.50;29.13;;;;;;;;;;5100032;28;20036;-68
2023/02/15 14:00:46;;;;;;;51.03;29.45;;;;;;;;;;5074410;28;20126;-68
2023/02/15 14:03:26;;;;;;;50.95;30.98;;;;;;;;;;5093644;28;20094;-68
2023/02/15 14:06:11;;;;;;;49.20;30.23;;;;;;;;;;5074671;28;20058;-68
2023/02/15 14:08:45;;;;;;;50.00;31.55;;;;;;;;;;5101508;28;20051;-68
2023/02/15 14:11:11;;;;;;;;;;;;;;;;;;5096854;28;20044;-67
2023/02/15 14:13:48;;;;;;;57.22;32.72;;;;;;;;;;5096230;28;20076;-66
2023/02/15 14:16:15;;;;;;;51.08;30.38;;;;;;;;;;5098873;28;20046;-66
2023/02/15 14:18:44;;;;;;;47.13;31.35;;;;;;;;;;5097878;28;20110;-66
2023/02/15 14:21:17;;;;;;;48.67;30.55;;;;;;;;;;5093122;28;20036;-66
2023/02/15 14:23:53;;;;;;;50.40;31.15;;;;;;;;;;5078573;28;20488;-67
2023/02/15 14:26:37;;;;;;;54.80;32.10;;;;;;;;;;5091911;28;20065;-66
2023/02/15 14:29:10;;;;;;;53.30;32.53;;;;;;;;;;5074784;28;20094;-67
2023/02/15 14:31:41;;;;;;;50.03;30.65;;;;;;;;;;5081860;28;20558;-66
2023/02/15 14:34:18;;;;;;;52.42;30.35;;;;;;;;;;5092575;28;20100;-66
2023/02/15 14:36:44;;;;;;;52.58;31.27;;;;;;;;;;5076269;28;20130;-66
2023/02/15 14:42:27;;;;;;;52.05;30.88;;;;;;;;;;5096607;28;20052;-66
2023/02/15 14:44:59;;;;;;;46.97;30.35;;;;;;;;;;5099331;28;20483;-66
2023/02/15 14:47:30;;;;;;;47.28;31.40;;;;;;;;;;5096457;28;20036;-66
2023/02/15 14:49:56;;;;;;;55.95;32.50;;;;;;;;;;5089072;28;20101;-66
2023/02/15 14:52:22;;;;;;;54.33;31.20;;;;;;;;;;5092393;28;20042;-66